sensor_id;sensor_type;location;lat;lon;timestamp;P1;durP1;ratioP1;P2;durP2;ratioP2
4821;SDS011;2425;47.794;13.068;2024-01-16T00:00:24;0.80;;;0.80;;
4821;SDS011;2425;47.794;13.068;2024-01-16T00:02:52;4.10;;;0.90;;
4821;SDS011;2425;47.794;13.068;2024-01-16T00:05:18;3.07;;;1.17;;
4821;SDS011;2425;47.794;13.068;2024-01-16T00:07:45;2.10;;;0.93;;
4821;SDS011;2425;47.794;13.068;2024-01-16T00:10:12;2.00;;;1.00;;
4821;SDS011;2425;47.794;13.068;2024-01-16T00:12:40;1.00;;;1.00;;
4821;SDS011;2425;47.794;13.068;2024-01-16T00:15:08;1.10;;;1.10;;
4821;SDS011;2425;47.794;13.068;2024-01-16T00:17:35;2.40;;;1.00;;
4821;SDS011;2425;47.794;13.068;2024-01-16T00:20:02;1.17;;;0.80;;
4821;SDS011;2425;47.794;13.068;2024-01-16T00:22:30;2.10;;;0.80;;
4821;SDS011;2425;47.794;13.068;2024-01-16T00:24:57;1.23;;;0.80;;
4821;SDS011;2425;47.794;13.068;2024-01-16T00:27:24;1.20;;;0.73;;
4821;SDS011;2425;47.794;13.068;2024-01-16T00:29:52;2.57;;;0.87;;
4821;SDS011;2425;47.794;13.068;2024-01-16T00:32:19;2.10;;;0.90;;
4821;SDS011;2425;47.794;13.068;2024-01-16T00:34:46;0.70;;;0.70;;
4821;SDS011;2425;47.794;13.068;2024-01-16T00:37:13;4.33;;;0.97;;
4821;SDS011;2425;47.794;13.068;2024-01-16T00:39:40;0.80;;;0.80;;
4821;SDS011;2425;47.794;13.068;2024-01-16T00:42:06;2.07;;;0.70;;
4821;SDS011;2425;47.794;13.068;2024-01-16T00:44:33;0.70;;;0.70;;
4821;SDS011;2425;47.794;13.068;2024-01-16T00:47:01;1.60;;;1.07;;
4821;SDS011;2425;47.794;13.068;2024-01-16T00:49:28;0.90;;;0.90;;
4821;SDS011;2425;47.794;13.068;2024-01-16T00:51:54;0.70;;;0.70;;
4821;SDS011;2425;47.794;13.068;2024-01-16T00:54:21;1.43;;;0.93;;
4821;SDS011;2425;47.794;13.068;2024-01-16T00:56:48;0.60;;;0.60;;
4821;SDS011;2425;47.794;13.068;2024-01-16T00:59:15;0.70;;;0.70;;
4821;SDS011;2425;47.794;13.068;2024-01-16T01:01:42;1.17;;;0.90;;
4821;SDS011;2425;47.794;13.068;2024-01-16T01:04:10;0.73;;;0.60;;
4821;SDS011;2425;47.794;13.068;2024-01-16T01:06:36;2.60;;;0.60;;
4821;SDS011;2425;47.794;13.068;2024-01-16T01:09:03;1.87;;;0.70;;
4821;SDS011;2425;47.794;13.068;2024-01-16T01:11:30;1.33;;;0.80;;
4821;SDS011;2425;47.794;13.068;2024-01-16T01:13:57;1.17;;;0.73;;
4821;SDS011;2425;47.794;13.068;2024-01-16T01:16:24;0.60;;;0.60;;
4821;SDS011;2425;47.794;13.068;2024-01-16T01:18:51;1.23;;;0.60;;
4821;SDS011;2425;47.794;13.068;2024-01-16T01:21:19;0.90;;;0.90;;
4821;SDS011;2425;47.794;13.068;2024-01-16T01:23:46;0.93;;;0.60;;
4821;SDS011;2425;47.794;13.068;2024-01-16T01:26:12;2.30;;;1.00;;
4821;SDS011;2425;47.794;13.068;2024-01-16T01:28:39;1.53;;;0.60;;
4821;SDS011;2425;47.794;13.068;2024-01-16T01:31:08;0.97;;;0.87;;
4821;SDS011;2425;47.794;13.068;2024-01-16T01:33:35;0.73;;;0.60;;
4821;SDS011;2425;47.794;13.068;2024-01-16T01:36:02;1.40;;;0.90;;
4821;SDS011;2425;47.794;13.068;2024-01-16T01:38:30;1.27;;;0.77;;
4821;SDS011;2425;47.794;13.068;2024-01-16T01:40:57;0.93;;;0.70;;
4821;SDS011;2425;47.794;13.068;2024-01-16T01:43:26;1.23;;;0.70;;
4821;SDS011;2425;47.794;13.068;2024-01-16T01:46:09;0.90;;;0.90;;
4821;SDS011;2425;47.794;13.068;2024-01-16T01:48:37;1.43;;;0.80;;
4821;SDS011;2425;47.794;13.068;2024-01-16T01:51:04;1.00;;;1.00;;
4821;SDS011;2425;47.794;13.068;2024-01-16T01:53:33;7.80;;;0.90;;
4821;SDS011;2425;47.794;13.068;2024-01-16T01:56:01;1.20;;;0.80;;
4821;SDS011;2425;47.794;13.068;2024-01-16T01:58:30;0.63;;;0.63;;
4821;SDS011;2425;47.794;13.068;2024-01-16T02:00:57;0.70;;;0.70;;
4821;SDS011;2425;47.794;13.068;2024-01-16T02:03:24;0.70;;;0.70;;
4821;SDS011;2425;47.794;13.068;2024-01-16T02:05:53;0.70;;;0.70;;
4821;SDS011;2425;47.794;13.068;2024-01-16T02:08:20;1.37;;;0.80;;
4821;SDS011;2425;47.794;13.068;2024-01-16T02:10:49;0.70;;;0.70;;
4821;SDS011;2425;47.794;13.068;2024-01-16T02:13:16;0.70;;;0.70;;
4821;SDS011;2425;47.794;13.068;2024-01-16T02:15:48;0.60;;;0.60;;
4821;SDS011;2425;47.794;13.068;2024-01-16T02:18:15;0.70;;;0.70;;
4821;SDS011;2425;47.794;13.068;2024-01-16T02:20:42;3.50;;;0.70;;
4821;SDS011;2425;47.794;13.068;2024-01-16T02:23:09;1.47;;;1.07;;
4821;SDS011;2425;47.794;13.068;2024-01-16T02:25:38;1.90;;;0.70;;
4821;SDS011;2425;47.794;13.068;2024-01-16T02:28:05;3.60;;;0.60;;
4821;SDS011;2425;47.794;13.068;2024-01-16T02:30:32;5.60;;;0.77;;
4821;SDS011;2425;47.794;13.068;2024-01-16T02:32:58;2.40;;;0.93;;
4821;SDS011;2425;47.794;13.068;2024-01-16T02:35:25;0.50;;;0.50;;
4821;SDS011;2425;47.794;13.068;2024-01-16T02:37:52;0.97;;;0.67;;
4821;SDS011;2425;47.794;13.068;2024-01-16T02:40:19;0.87;;;0.77;;
4821;SDS011;2425;47.794;13.068;2024-01-16T02:42:47;0.77;;;0.77;;
4821;SDS011;2425;47.794;13.068;2024-01-16T02:45:13;0.97;;;0.70;;
4821;SDS011;2425;47.794;13.068;2024-01-16T02:47:40;0.60;;;0.53;;
4821;SDS011;2425;47.794;13.068;2024-01-16T02:50:07;0.43;;;0.43;;
4821;SDS011;2425;47.794;13.068;2024-01-16T02:52:35;0.50;;;0.50;;
4821;SDS011;2425;47.794;13.068;2024-01-16T02:55:01;1.20;;;0.60;;
4821;SDS011;2425;47.794;13.068;2024-01-16T02:57:30;1.07;;;0.60;;
4821;SDS011;2425;47.794;13.068;2024-01-16T02:59:58;0.67;;;0.67;;
4821;SDS011;2425;47.794;13.068;2024-01-16T03:02:24;1.20;;;1.10;;
4821;SDS011;2425;47.794;13.068;2024-01-16T03:04:51;0.50;;;0.50;;
4821;SDS011;2425;47.794;13.068;2024-01-16T03:07:18;0.77;;;0.60;;
4821;SDS011;2425;47.794;13.068;2024-01-16T03:09:45;0.60;;;0.60;;
4821;SDS011;2425;47.794;13.068;2024-01-16T03:12:11;0.50;;;0.50;;
4821;SDS011;2425;47.794;13.068;2024-01-16T03:14:38;3.07;;;0.60;;
4821;SDS011;2425;47.794;13.068;2024-01-16T03:17:06;0.63;;;0.63;;
4821;SDS011;2425;47.794;13.068;2024-01-16T03:19:33;0.50;;;0.50;;
4821;SDS011;2425;47.794;13.068;2024-01-16T03:22:00;0.60;;;0.60;;
4821;SDS011;2425;47.794;13.068;2024-01-16T03:24:26;2.37;;;0.70;;
4821;SDS011;2425;47.794;13.068;2024-01-16T03:26:53;0.50;;;0.50;;
4821;SDS011;2425;47.794;13.068;2024-01-16T03:29:20;0.60;;;0.60;;
4821;SDS011;2425;47.794;13.068;2024-01-16T03:31:47;0.60;;;0.60;;
4821;SDS011;2425;47.794;13.068;2024-01-16T03:34:15;0.93;;;0.50;;
4821;SDS011;2425;47.794;13.068;2024-01-16T03:36:42;2.10;;;0.80;;
4821;SDS011;2425;47.794;13.068;2024-01-16T03:39:09;1.03;;;0.50;;
4821;SDS011;2425;47.794;13.068;2024-01-16T03:41:37;2.80;;;0.60;;
4821;SDS011;2425;47.794;13.068;2024-01-16T03:44:05;0.50;;;0.50;;
4821;SDS011;2425;47.794;13.068;2024-01-16T03:46:31;4.23;;;0.60;;
4821;SDS011;2425;47.794;13.068;2024-01-16T03:48:58;1.27;;;0.70;;
4821;SDS011;2425;47.794;13.068;2024-01-16T03:51:26;0.67;;;0.60;;
4821;SDS011;2425;47.794;13.068;2024-01-16T03:53:53;0.60;;;0.60;;
4821;SDS011;2425;47.794;13.068;2024-01-16T03:56:20;0.63;;;0.63;;
4821;SDS011;2425;47.794;13.068;2024-01-16T03:58:46;0.97;;;0.63;;
4821;SDS011;2425;47.794;13.068;2024-01-16T04:01:13;2.10;;;0.50;;
4821;SDS011;2425;47.794;13.068;2024-01-16T04:03:40;0.83;;;0.70;;
4821;SDS011;2425;47.794;13.068;2024-01-16T04:06:14;1.00;;;0.60;;
4821;SDS011;2425;47.794;13.068;2024-01-16T04:08:43;0.67;;;0.67;;
4821;SDS011;2425;47.794;13.068;2024-01-16T04:11:11;0.60;;;0.60;;
4821;SDS011;2425;47.794;13.068;2024-01-16T04:13:38;0.70;;;0.70;;
4821;SDS011;2425;47.794;13.068;2024-01-16T04:16:05;0.50;;;0.50;;
4821;SDS011;2425;47.794;13.068;2024-01-16T04:18:34;0.93;;;0.60;;
4821;SDS011;2425;47.794;13.068;2024-01-16T04:21:02;2.00;;;0.40;;
4821;SDS011;2425;47.794;13.068;2024-01-16T04:23:28;0.60;;;0.60;;
4821;SDS011;2425;47.794;13.068;2024-01-16T04:25:57;0.63;;;0.63;;
4821;SDS011;2425;47.794;13.068;2024-01-16T04:28:24;0.50;;;0.50;;
4821;SDS011;2425;47.794;13.068;2024-01-16T04:30:51;0.60;;;0.60;;
4821;SDS011;2425;47.794;13.068;2024-01-16T04:33:18;2.40;;;0.50;;
4821;SDS011;2425;47.794;13.068;2024-01-16T04:35:44;0.50;;;0.50;;
4821;SDS011;2425;47.794;13.068;2024-01-16T04:38:11;1.73;;;0.60;;
4821;SDS011;2425;47.794;13.068;2024-01-16T04:40:38;1.13;;;0.60;;
4821;SDS011;2425;47.794;13.068;2024-01-16T04:43:07;0.60;;;0.60;;
4821;SDS011;2425;47.794;13.068;2024-01-16T04:45:34;0.87;;;0.50;;
4821;SDS011;2425;47.794;13.068;2024-01-16T04:48:01;0.63;;;0.63;;
4821;SDS011;2425;47.794;13.068;2024-01-16T04:50:28;0.70;;;0.70;;
4821;SDS011;2425;47.794;13.068;2024-01-16T04:52:57;1.97;;;0.80;;
4821;SDS011;2425;47.794;13.068;2024-01-16T04:55:25;0.80;;;0.50;;
4821;SDS011;2425;47.794;13.068;2024-01-16T04:57:52;0.70;;;0.60;;
4821;SDS011;2425;47.794;13.068;2024-01-16T05:00:20;0.43;;;0.43;;
4821;SDS011;2425;47.794;13.068;2024-01-16T05:02:47;0.50;;;0.50;;
4821;SDS011;2425;47.794;13.068;2024-01-16T05:05:14;0.60;;;0.60;;
4821;SDS011;2425;47.794;13.068;2024-01-16T05:07:41;0.70;;;0.70;;
4821;SDS011;2425;47.794;13.068;2024-01-16T05:10:09;0.60;;;0.60;;
4821;SDS011;2425;47.794;13.068;2024-01-16T05:12:37;0.57;;;0.50;;
4821;SDS011;2425;47.794;13.068;2024-01-16T05:15:05;1.37;;;0.60;;
4821;SDS011;2425;47.794;13.068;2024-01-16T05:17:34;0.93;;;0.50;;
4821;SDS011;2425;47.794;13.068;2024-01-16T05:20:01;1.43;;;0.60;;
4821;SDS011;2425;47.794;13.068;2024-01-16T05:22:29;0.57;;;0.57;;
4821;SDS011;2425;47.794;13.068;2024-01-16T05:24:56;1.90;;;0.50;;
4821;SDS011;2425;47.794;13.068;2024-01-16T05:27:23;0.60;;;0.60;;
4821;SDS011;2425;47.794;13.068;2024-01-16T05:29:50;0.83;;;0.60;;
4821;SDS011;2425;47.794;13.068;2024-01-16T05:32:17;0.90;;;0.70;;
4821;SDS011;2425;47.794;13.068;2024-01-16T05:34:45;1.90;;;0.57;;
4821;SDS011;2425;47.794;13.068;2024-01-16T05:37:11;0.53;;;0.50;;
4821;SDS011;2425;47.794;13.068;2024-01-16T05:39:38;0.60;;;0.60;;
4821;SDS011;2425;47.794;13.068;2024-01-16T05:42:05;2.00;;;0.63;;
4821;SDS011;2425;47.794;13.068;2024-01-16T05:44:32;0.57;;;0.50;;
4821;SDS011;2425;47.794;13.068;2024-01-16T05:46:59;0.63;;;0.63;;
4821;SDS011;2425;47.794;13.068;2024-01-16T05:49:27;0.53;;;0.53;;
4821;SDS011;2425;47.794;13.068;2024-01-16T05:51:55;2.50;;;0.70;;
4821;SDS011;2425;47.794;13.068;2024-01-16T05:54:22;0.50;;;0.50;;
4821;SDS011;2425;47.794;13.068;2024-01-16T05:56:49;0.50;;;0.50;;
4821;SDS011;2425;47.794;13.068;2024-01-16T05:59:16;0.50;;;0.50;;
4821;SDS011;2425;47.794;13.068;2024-01-16T06:01:43;1.17;;;0.60;;
4821;SDS011;2425;47.794;13.068;2024-01-16T06:04:10;0.73;;;0.73;;
4821;SDS011;2425;47.794;13.068;2024-01-16T06:06:37;1.03;;;0.60;;
4821;SDS011;2425;47.794;13.068;2024-01-16T06:09:05;2.73;;;0.50;;
4821;SDS011;2425;47.794;13.068;2024-01-16T06:11:32;0.60;;;0.50;;
4821;SDS011;2425;47.794;13.068;2024-01-16T06:13:59;1.10;;;0.60;;
4821;SDS011;2425;47.794;13.068;2024-01-16T06:16:26;0.50;;;0.50;;
4821;SDS011;2425;47.794;13.068;2024-01-16T06:18:54;6.40;;;0.70;;
4821;SDS011;2425;47.794;13.068;2024-01-16T06:21:22;2.97;;;0.43;;
4821;SDS011;2425;47.794;13.068;2024-01-16T06:23:50;0.60;;;0.60;;
4821;SDS011;2425;47.794;13.068;2024-01-16T06:26:21;2.23;;;0.63;;
4821;SDS011;2425;47.794;13.068;2024-01-16T06:28:48;0.70;;;0.50;;
4821;SDS011;2425;47.794;13.068;2024-01-16T06:31:15;1.73;;;0.70;;
4821;SDS011;2425;47.794;13.068;2024-01-16T06:33:42;0.50;;;0.50;;
4821;SDS011;2425;47.794;13.068;2024-01-16T06:36:09;2.40;;;0.60;;
4821;SDS011;2425;47.794;13.068;2024-01-16T06:38:37;2.67;;;0.50;;
4821;SDS011;2425;47.794;13.068;2024-01-16T06:41:04;0.50;;;0.40;;
4821;SDS011;2425;47.794;13.068;2024-01-16T06:43:32;3.27;;;0.70;;
4821;SDS011;2425;47.794;13.068;2024-01-16T06:45:59;0.97;;;0.70;;
4821;SDS011;2425;47.794;13.068;2024-01-16T06:48:26;0.50;;;0.50;;
4821;SDS011;2425;47.794;13.068;2024-01-16T06:50:53;0.83;;;0.60;;
4821;SDS011;2425;47.794;13.068;2024-01-16T06:53:20;0.60;;;0.50;;
4821;SDS011;2425;47.794;13.068;2024-01-16T06:55:47;0.50;;;0.50;;
4821;SDS011;2425;47.794;13.068;2024-01-16T06:58:14;4.47;;;0.80;;
4821;SDS011;2425;47.794;13.068;2024-01-16T07:00:42;0.40;;;0.40;;
4821;SDS011;2425;47.794;13.068;2024-01-16T07:03:09;0.60;;;0.50;;
4821;SDS011;2425;47.794;13.068;2024-01-16T07:05:36;7.60;;;0.90;;
4821;SDS011;2425;47.794;13.068;2024-01-16T07:08:03;7.00;;;1.00;;
4821;SDS011;2425;47.794;13.068;2024-01-16T07:10:30;2.00;;;0.90;;
4821;SDS011;2425;47.794;13.068;2024-01-16T07:12:56;5.20;;;1.13;;
4821;SDS011;2425;47.794;13.068;2024-01-16T07:15:23;4.93;;;1.00;;
4821;SDS011;2425;47.794;13.068;2024-01-16T07:17:51;4.20;;;1.00;;
4821;SDS011;2425;47.794;13.068;2024-01-16T07:20:18;10.93;;;4.97;;
4821;SDS011;2425;47.794;13.068;2024-01-16T07:22:45;7.80;;;3.20;;
4821;SDS011;2425;47.794;13.068;2024-01-16T07:25:12;13.40;;;2.60;;
4821;SDS011;2425;47.794;13.068;2024-01-16T07:27:40;5.30;;;2.17;;
4821;SDS011;2425;47.794;13.068;2024-01-16T07:30:07;9.57;;;2.40;;
4821;SDS011;2425;47.794;13.068;2024-01-16T07:32:34;11.53;;;2.60;;
4821;SDS011;2425;47.794;13.068;2024-01-16T07:35:03;6.97;;;3.03;;
4821;SDS011;2425;47.794;13.068;2024-01-16T07:37:30;11.53;;;8.70;;
4821;SDS011;2425;47.794;13.068;2024-01-16T07:39:57;13.23;;;4.77;;
4821;SDS011;2425;47.794;13.068;2024-01-16T07:42:24;7.33;;;4.80;;
4821;SDS011;2425;47.794;13.068;2024-01-16T07:44:58;17.53;;;3.53;;
4821;SDS011;2425;47.794;13.068;2024-01-16T07:47:25;6.30;;;3.80;;
4821;SDS011;2425;47.794;13.068;2024-01-16T07:49:52;4.43;;;3.97;;
4821;SDS011;2425;47.794;13.068;2024-01-16T07:52:20;8.27;;;4.37;;
4821;SDS011;2425;47.794;13.068;2024-01-16T07:54:47;12.07;;;7.40;;
4821;SDS011;2425;47.794;13.068;2024-01-16T07:57:13;20.37;;;7.07;;
4821;SDS011;2425;47.794;13.068;2024-01-16T07:59:40;9.90;;;4.70;;
4821;SDS011;2425;47.794;13.068;2024-01-16T08:02:07;13.50;;;5.20;;
4821;SDS011;2425;47.794;13.068;2024-01-16T08:04:34;12.70;;;4.70;;
4821;SDS011;2425;47.794;13.068;2024-01-16T08:07:01;11.40;;;4.40;;
4821;SDS011;2425;47.794;13.068;2024-01-16T08:09:29;9.00;;;4.47;;
4821;SDS011;2425;47.794;13.068;2024-01-16T08:11:56;5.77;;;4.00;;
4821;SDS011;2425;47.794;13.068;2024-01-16T08:14:22;10.03;;;4.17;;
4821;SDS011;2425;47.794;13.068;2024-01-16T08:16:49;7.87;;;4.40;;
4821;SDS011;2425;47.794;13.068;2024-01-16T08:19:16;11.10;;;3.80;;
4821;SDS011;2425;47.794;13.068;2024-01-16T08:21:43;18.07;;;4.50;;
4821;SDS011;2425;47.794;13.068;2024-01-16T08:24:10;6.67;;;4.20;;
4821;SDS011;2425;47.794;13.068;2024-01-16T08:26:39;4.47;;;3.67;;
4821;SDS011;2425;47.794;13.068;2024-01-16T08:29:05;11.20;;;4.23;;
4821;SDS011;2425;47.794;13.068;2024-01-16T08:31:32;7.77;;;4.37;;
4821;SDS011;2425;47.794;13.068;2024-01-16T08:33:59;4.57;;;4.10;;
4821;SDS011;2425;47.794;13.068;2024-01-16T08:36:26;38.23;;;19.50;;
4821;SDS011;2425;47.794;13.068;2024-01-16T08:38:56;9.57;;;7.93;;
4821;SDS011;2425;47.794;13.068;2024-01-16T08:41:31;12.40;;;7.60;;
4821;SDS011;2425;47.794;13.068;2024-01-16T08:43:59;21.83;;;8.63;;
4821;SDS011;2425;47.794;13.068;2024-01-16T08:46:26;18.50;;;8.57;;
4821;SDS011;2425;47.794;13.068;2024-01-16T08:48:52;12.60;;;6.90;;
4821;SDS011;2425;47.794;13.068;2024-01-16T08:51:19;20.30;;;7.10;;
4821;SDS011;2425;47.794;13.068;2024-01-16T08:53:46;7.03;;;6.30;;
4821;SDS011;2425;47.794;13.068;2024-01-16T08:56:13;11.80;;;7.03;;
4821;SDS011;2425;47.794;13.068;2024-01-16T08:58:39;17.33;;;6.40;;
4821;SDS011;2425;47.794;13.068;2024-01-16T09:01:08;20.30;;;6.87;;
4821;SDS011;2425;47.794;13.068;2024-01-16T09:03:35;8.90;;;6.40;;
4821;SDS011;2425;47.794;13.068;2024-01-16T09:06:02;13.43;;;6.50;;
4821;SDS011;2425;47.794;13.068;2024-01-16T09:08:29;10.30;;;6.30;;
4821;SDS011;2425;47.794;13.068;2024-01-16T09:10:57;9.77;;;6.30;;
4821;SDS011;2425;47.794;13.068;2024-01-16T09:13:23;21.20;;;6.10;;
4821;SDS011;2425;47.794;13.068;2024-01-16T09:15:50;12.07;;;5.57;;
4821;SDS011;2425;47.794;13.068;2024-01-16T09:18:18;9.87;;;6.07;;
4821;SDS011;2425;47.794;13.068;2024-01-16T09:20:45;11.27;;;5.73;;
4821;SDS011;2425;47.794;13.068;2024-01-16T09:23:13;19.43;;;5.80;;
4821;SDS011;2425;47.794;13.068;2024-01-16T09:25:40;10.20;;;5.60;;
4821;SDS011;2425;47.794;13.068;2024-01-16T09:28:07;15.87;;;5.50;;
4821;SDS011;2425;47.794;13.068;2024-01-16T09:30:34;20.60;;;5.63;;
4821;SDS011;2425;47.794;13.068;2024-01-16T09:33:00;9.47;;;5.27;;
4821;SDS011;2425;47.794;13.068;2024-01-16T09:35:30;11.63;;;5.47;;
4821;SDS011;2425;47.794;13.068;2024-01-16T09:37:56;12.40;;;5.40;;
4821;SDS011;2425;47.794;13.068;2024-01-16T09:40:24;10.70;;;5.90;;
4821;SDS011;2425;47.794;13.068;2024-01-16T09:42:51;14.87;;;5.83;;
4821;SDS011;2425;47.794;13.068;2024-01-16T09:45:19;8.87;;;5.50;;
4821;SDS011;2425;47.794;13.068;2024-01-16T09:47:59;11.60;;;5.50;;
4821;SDS011;2425;47.794;13.068;2024-01-16T09:50:42;10.50;;;4.50;;
4821;SDS011;2425;47.794;13.068;2024-01-16T09:53:22;11.43;;;5.67;;
4821;SDS011;2425;47.794;13.068;2024-01-16T09:55:49;11.57;;;5.67;;
4821;SDS011;2425;47.794;13.068;2024-01-16T09:58:16;7.63;;;5.47;;
4821;SDS011;2425;47.794;13.068;2024-01-16T10:00:45;21.13;;;5.00;;
4821;SDS011;2425;47.794;13.068;2024-01-16T10:03:13;7.47;;;5.03;;
4821;SDS011;2425;47.794;13.068;2024-01-16T10:05:42;17.13;;;12.70;;
4821;SDS011;2425;47.794;13.068;2024-01-16T10:08:09;24.63;;;14.00;;
4821;SDS011;2425;47.794;13.068;2024-01-16T10:10:35;18.03;;;12.90;;
4821;SDS011;2425;47.794;13.068;2024-01-16T10:13:03;20.43;;;13.90;;
4821;SDS011;2425;47.794;13.068;2024-01-16T10:15:30;16.57;;;12.23;;
4821;SDS011;2425;47.794;13.068;2024-01-16T10:17:57;30.70;;;13.40;;
4821;SDS011;2425;47.794;13.068;2024-01-16T10:20:34;16.80;;;13.30;;
4821;SDS011;2425;47.794;13.068;2024-01-16T10:23:03;18.33;;;12.70;;
4821;SDS011;2425;47.794;13.068;2024-01-16T10:25:30;15.93;;;11.97;;
4821;SDS011;2425;47.794;13.068;2024-01-16T10:28:03;28.77;;;12.23;;
4821;SDS011;2425;47.794;13.068;2024-01-16T10:30:33;14.23;;;8.80;;
4821;SDS011;2425;47.794;13.068;2024-01-16T10:33:12;14.23;;;8.60;;
4821;SDS011;2425;47.794;13.068;2024-01-16T10:35:40;10.60;;;8.10;;
4821;SDS011;2425;47.794;13.068;2024-01-16T10:38:08;13.77;;;7.67;;
4821;SDS011;2425;47.794;13.068;2024-01-16T10:40:35;9.70;;;7.77;;
4821;SDS011;2425;47.794;13.068;2024-01-16T10:43:02;10.57;;;8.30;;
4821;SDS011;2425;47.794;13.068;2024-01-16T10:45:30;8.43;;;7.00;;
4821;SDS011;2425;47.794;13.068;2024-01-16T10:48:00;9.80;;;7.20;;
4821;SDS011;2425;47.794;13.068;2024-01-16T10:50:29;15.00;;;11.53;;
4821;SDS011;2425;47.794;13.068;2024-01-16T10:52:55;13.83;;;10.60;;
4821;SDS011;2425;47.794;13.068;2024-01-16T10:55:27;16.03;;;10.93;;
4821;SDS011;2425;47.794;13.068;2024-01-16T10:57:55;20.97;;;10.77;;
4821;SDS011;2425;47.794;13.068;2024-01-16T11:00:23;18.60;;;6.90;;
4821;SDS011;2425;47.794;13.068;2024-01-16T11:02:51;13.23;;;8.00;;
4821;SDS011;2425;47.794;13.068;2024-01-16T11:05:22;13.10;;;7.43;;
4821;SDS011;2425;47.794;13.068;2024-01-16T11:07:49;15.30;;;6.87;;
4821;SDS011;2425;47.794;13.068;2024-01-16T11:10:17;29.70;;;7.40;;
4821;SDS011;2425;47.794;13.068;2024-01-16T11:12:45;8.17;;;7.30;;
4821;SDS011;2425;47.794;13.068;2024-01-16T11:15:13;11.67;;;7.40;;
4821;SDS011;2425;47.794;13.068;2024-01-16T11:17:40;15.53;;;7.73;;
4821;SDS011;2425;47.794;13.068;2024-01-16T11:20:10;9.80;;;7.00;;
4821;SDS011;2425;47.794;13.068;2024-01-16T11:22:39;8.73;;;6.23;;
4821;SDS011;2425;47.794;13.068;2024-01-16T11:25:07;14.33;;;7.10;;
4821;SDS011;2425;47.794;13.068;2024-01-16T11:27:35;13.27;;;7.13;;
4821;SDS011;2425;47.794;13.068;2024-01-16T11:30:04;11.80;;;6.17;;
4821;SDS011;2425;47.794;13.068;2024-01-16T11:32:32;7.93;;;6.87;;
4821;SDS011;2425;47.794;13.068;2024-01-16T11:35:00;7.67;;;5.87;;
4821;SDS011;2425;47.794;13.068;2024-01-16T11:37:28;17.67;;;12.83;;
4821;SDS011;2425;47.794;13.068;2024-01-16T11:42:49;26.00;;;10.27;;
4821;SDS011;2425;47.794;13.068;2024-01-16T11:48:17;9.03;;;7.57;;
4821;SDS011;2425;47.794;13.068;2024-01-16T11:50:45;9.70;;;7.17;;
4821;SDS011;2425;47.794;13.068;2024-01-16T11:58:56;16.83;;;7.30;;
4821;SDS011;2425;47.794;13.068;2024-01-16T12:01:29;10.23;;;7.03;;
4821;SDS011;2425;47.794;13.068;2024-01-16T12:04:03;8.23;;;7.10;;
4821;SDS011;2425;47.794;13.068;2024-01-16T12:06:30;9.87;;;7.03;;
4821;SDS011;2425;47.794;13.068;2024-01-16T12:09:10;12.00;;;7.70;;
4821;SDS011;2425;47.794;13.068;2024-01-16T12:11:38;12.20;;;7.20;;
4821;SDS011;2425;47.794;13.068;2024-01-16T12:14:05;10.63;;;6.73;;
4821;SDS011;2425;47.794;13.068;2024-01-16T12:16:33;6.90;;;6.20;;
4821;SDS011;2425;47.794;13.068;2024-01-16T12:19:05;7.30;;;6.07;;
4821;SDS011;2425;47.794;13.068;2024-01-16T12:21:33;6.70;;;6.10;;
4821;SDS011;2425;47.794;13.068;2024-01-16T12:24:01;12.43;;;6.50;;
4821;SDS011;2425;47.794;13.068;2024-01-16T12:26:28;12.30;;;6.53;;
4821;SDS011;2425;47.794;13.068;2024-01-16T12:28:55;9.40;;;5.83;;
4821;SDS011;2425;47.794;13.068;2024-01-16T12:31:22;7.40;;;5.90;;
4821;SDS011;2425;47.794;13.068;2024-01-16T12:33:51;9.10;;;6.60;;
4821;SDS011;2425;47.794;13.068;2024-01-16T12:36:18;10.90;;;6.13;;
4821;SDS011;2425;47.794;13.068;2024-01-16T12:38:44;15.70;;;6.20;;
4821;SDS011;2425;47.794;13.068;2024-01-16T12:41:12;10.87;;;5.33;;
4821;SDS011;2425;47.794;13.068;2024-01-16T12:43:39;9.97;;;5.20;;
4821;SDS011;2425;47.794;13.068;2024-01-16T12:46:06;15.60;;;4.93;;
4821;SDS011;2425;47.794;13.068;2024-01-16T12:48:33;7.43;;;5.10;;
4821;SDS011;2425;47.794;13.068;2024-01-16T12:51:01;7.63;;;6.20;;
4821;SDS011;2425;47.794;13.068;2024-01-16T12:53:29;11.00;;;5.97;;
4821;SDS011;2425;47.794;13.068;2024-01-16T12:55:57;9.57;;;5.13;;
4821;SDS011;2425;47.794;13.068;2024-01-16T12:58:25;5.90;;;4.40;;
4821;SDS011;2425;47.794;13.068;2024-01-16T13:00:53;12.93;;;5.17;;
4821;SDS011;2425;47.794;13.068;2024-01-16T13:03:21;10.63;;;4.57;;
4821;SDS011;2425;47.794;13.068;2024-01-16T13:05:54;13.13;;;4.70;;
4821;SDS011;2425;47.794;13.068;2024-01-16T13:08:23;17.83;;;4.20;;
4821;SDS011;2425;47.794;13.068;2024-01-16T13:11:01;7.23;;;4.30;;
4821;SDS011;2425;47.794;13.068;2024-01-16T13:13:28;9.00;;;4.67;;
4821;SDS011;2425;47.794;13.068;2024-01-16T13:15:55;6.87;;;4.03;;
4821;SDS011;2425;47.794;13.068;2024-01-16T13:18:23;9.57;;;4.53;;
4821;SDS011;2425;47.794;13.068;2024-01-16T13:20:51;9.30;;;3.90;;
4821;SDS011;2425;47.794;13.068;2024-01-16T13:23:19;6.13;;;4.07;;
4821;SDS011;2425;47.794;13.068;2024-01-16T13:25:48;6.63;;;3.60;;
4821;SDS011;2425;47.794;13.068;2024-01-16T13:28:16;12.40;;;3.30;;
4821;SDS011;2425;47.794;13.068;2024-01-16T13:30:44;8.77;;;3.87;;
4821;SDS011;2425;47.794;13.068;2024-01-16T13:33:12;10.80;;;4.20;;
4821;SDS011;2425;47.794;13.068;2024-01-16T13:35:41;7.37;;;3.90;;
4821;SDS011;2425;47.794;13.068;2024-01-16T13:38:09;16.07;;;3.67;;
4821;SDS011;2425;47.794;13.068;2024-01-16T13:40:40;14.37;;;3.83;;
4821;SDS011;2425;47.794;13.068;2024-01-16T13:43:08;12.60;;;3.70;;
4821;SDS011;2425;47.794;13.068;2024-01-16T13:45:36;4.73;;;3.27;;
4821;SDS011;2425;47.794;13.068;2024-01-16T13:48:04;7.53;;;3.30;;
4821;SDS011;2425;47.794;13.068;2024-01-16T13:50:32;9.13;;;3.50;;
4821;SDS011;2425;47.794;13.068;2024-01-16T13:52:59;17.33;;;3.83;;
4821;SDS011;2425;47.794;13.068;2024-01-16T13:55:26;13.10;;;3.90;;
4821;SDS011;2425;47.794;13.068;2024-01-16T13:57:53;6.60;;;3.10;;
4821;SDS011;2425;47.794;13.068;2024-01-16T14:00:21;5.83;;;2.93;;
4821;SDS011;2425;47.794;13.068;2024-01-16T14:02:48;3.90;;;3.20;;
4821;SDS011;2425;47.794;13.068;2024-01-16T14:05:16;14.30;;;3.47;;
4821;SDS011;2425;47.794;13.068;2024-01-16T14:07:43;4.80;;;2.80;;
4821;SDS011;2425;47.794;13.068;2024-01-16T14:10:12;16.70;;;2.80;;
4821;SDS011;2425;47.794;13.068;2024-01-16T14:12:39;11.30;;;2.73;;
4821;SDS011;2425;47.794;13.068;2024-01-16T14:15:08;35.90;;;3.30;;
4821;SDS011;2425;47.794;13.068;2024-01-16T14:17:42;3.97;;;2.60;;
4821;SDS011;2425;47.794;13.068;2024-01-16T14:20:10;24.23;;;3.60;;
4821;SDS011;2425;47.794;13.068;2024-01-16T14:22:37;15.33;;;3.83;;
4821;SDS011;2425;47.794;13.068;2024-01-16T14:25:05;6.80;;;2.80;;
4821;SDS011;2425;47.794;13.068;2024-01-16T14:27:36;12.30;;;2.90;;
4821;SDS011;2425;47.794;13.068;2024-01-16T14:30:05;12.07;;;2.87;;
4821;SDS011;2425;47.794;13.068;2024-01-16T14:32:33;4.23;;;2.60;;
4821;SDS011;2425;47.794;13.068;2024-01-16T14:35:01;8.10;;;2.53;;
4821;SDS011;2425;47.794;13.068;2024-01-16T14:37:29;11.47;;;4.93;;
4821;SDS011;2425;47.794;13.068;2024-01-16T14:39:57;6.97;;;4.23;;
4821;SDS011;2425;47.794;13.068;2024-01-16T14:42:26;16.53;;;7.90;;
4821;SDS011;2425;47.794;13.068;2024-01-16T14:44:53;16.87;;;4.60;;
4821;SDS011;2425;47.794;13.068;2024-01-16T14:47:19;9.80;;;4.63;;
4821;SDS011;2425;47.794;13.068;2024-01-16T14:49:46;8.00;;;4.27;;
4821;SDS011;2425;47.794;13.068;2024-01-16T14:52:15;5.50;;;4.50;;
4821;SDS011;2425;47.794;13.068;2024-01-16T14:54:43;9.67;;;4.40;;
4821;SDS011;2425;47.794;13.068;2024-01-16T14:57:09;8.77;;;3.70;;
4821;SDS011;2425;47.794;13.068;2024-01-16T14:59:37;6.13;;;3.67;;
4821;SDS011;2425;47.794;13.068;2024-01-16T15:02:04;5.10;;;3.70;;
4821;SDS011;2425;47.794;13.068;2024-01-16T15:04:37;12.07;;;3.60;;
4821;SDS011;2425;47.794;13.068;2024-01-16T15:07:04;8.90;;;3.57;;
4821;SDS011;2425;47.794;13.068;2024-01-16T15:09:32;27.87;;;3.80;;
4821;SDS011;2425;47.794;13.068;2024-01-16T15:12:00;8.73;;;3.60;;